Terminal Aerodrome Forecast
Issued by NWS Wichita, KS

Home | Current Version | Previous Version | Text Only | Print | Product List | Glossary On
Versions: 1 2 3 4 5 6 7 8 9 10 11 12 13 14 15 16 17 18 19 20 21 22 23 24 25
809
FTUS43 KICT 140520
TAFICT
TAF
KICT 140520Z 1406/1506 01006KT P6SM OVC020
     FM142100 02005KT 5SM -FZRA OVC015
     FM150100 04005KT 2SM -FZRA OVC007=

USA.gov is the U.S. government's official web portal to all federal, state and local government web resources and services.